sensor_id;sensor_type;location;lat;lon;timestamp;P1;durP1;ratioP1;P2;durP2;ratioP2
29940;SDS011;16801;53.562;10.038;2023-01-28T00:03:04;5.20;;;1.47;;
29940;SDS011;16801;53.562;10.038;2023-01-28T00:06:24;1.00;;;1.00;;
29940;SDS011;16801;53.562;10.038;2023-01-28T00:09:45;0.97;;;0.90;;
29940;SDS011;16801;53.562;10.038;2023-01-28T00:13:06;0.90;;;0.73;;
29940;SDS011;16801;53.562;10.038;2023-01-28T00:16:27;0.70;;;0.70;;
29940;SDS011;16801;53.562;10.038;2023-01-28T00:19:49;1.00;;;1.00;;
29940;SDS011;16801;53.562;10.038;2023-01-28T00:23:10;0.93;;;0.90;;
29940;SDS011;16801;53.562;10.038;2023-01-28T00:26:31;0.77;;;0.77;;
29940;SDS011;16801;53.562;10.038;2023-01-28T00:29:52;0.97;;;0.97;;
29940;SDS011;16801;53.562;10.038;2023-01-28T00:33:13;0.90;;;0.90;;
29940;SDS011;16801;53.562;10.038;2023-01-28T00:36:36;0.77;;;0.77;;
29940;SDS011;16801;53.562;10.038;2023-01-28T00:39:58;0.90;;;0.90;;
29940;SDS011;16801;53.562;10.038;2023-01-28T00:43:19;2.83;;;1.10;;
29940;SDS011;16801;53.562;10.038;2023-01-28T00:46:40;5.20;;;1.03;;
29940;SDS011;16801;53.562;10.038;2023-01-28T00:50:01;1.43;;;1.00;;
29940;SDS011;16801;53.562;10.038;2023-01-28T00:53:25;0.40;;;0.40;;
29940;SDS011;16801;53.562;10.038;2023-01-28T00:56:46;0.90;;;0.87;;
29940;SDS011;16801;53.562;10.038;2023-01-28T01:00:07;0.70;;;0.70;;
29940;SDS011;16801;53.562;10.038;2023-01-28T01:03:29;2.10;;;1.07;;
29940;SDS011;16801;53.562;10.038;2023-01-28T01:06:50;0.50;;;0.50;;
29940;SDS011;16801;53.562;10.038;2023-01-28T01:10:14;0.90;;;0.90;;
29940;SDS011;16801;53.562;10.038;2023-01-28T01:13:36;0.60;;;0.60;;
29940;SDS011;16801;53.562;10.038;2023-01-28T01:16:57;1.33;;;1.00;;
29940;SDS011;16801;53.562;10.038;2023-01-28T01:20:18;0.90;;;0.90;;
29940;SDS011;16801;53.562;10.038;2023-01-28T01:23:41;2.00;;;0.90;;
29940;SDS011;16801;53.562;10.038;2023-01-28T01:27:03;1.60;;;1.50;;
29940;SDS011;16801;53.562;10.038;2023-01-28T01:30:25;2.97;;;2.67;;
29940;SDS011;16801;53.562;10.038;2023-01-28T01:33:47;1.57;;;1.47;;
29940;SDS011;16801;53.562;10.038;2023-01-28T01:37:08;2.37;;;1.50;;
29940;SDS011;16801;53.562;10.038;2023-01-28T01:40:30;1.90;;;1.70;;
29940;SDS011;16801;53.562;10.038;2023-01-28T01:43:55;1.93;;;1.83;;
29940;SDS011;16801;53.562;10.038;2023-01-28T01:47:18;2.10;;;1.23;;
29940;SDS011;16801;53.562;10.038;2023-01-28T01:50:41;0.90;;;0.90;;
29940;SDS011;16801;53.562;10.038;2023-01-28T01:54:12;1.70;;;1.60;;
29940;SDS011;16801;53.562;10.038;2023-01-28T01:57:34;1.90;;;1.20;;
29940;SDS011;16801;53.562;10.038;2023-01-28T02:00:57;1.43;;;1.00;;
29940;SDS011;16801;53.562;10.038;2023-01-28T02:04:20;1.57;;;0.87;;
29940;SDS011;16801;53.562;10.038;2023-01-28T02:07:45;0.80;;;0.80;;
29940;SDS011;16801;53.562;10.038;2023-01-28T02:11:10;0.80;;;0.80;;
29940;SDS011;16801;53.562;10.038;2023-01-28T02:14:34;1.17;;;1.07;;
29940;SDS011;16801;53.562;10.038;2023-01-28T02:18:02;0.97;;;0.87;;
29940;SDS011;16801;53.562;10.038;2023-01-28T02:21:28;1.30;;;0.70;;
29940;SDS011;16801;53.562;10.038;2023-01-28T02:25:21;1.10;;;1.00;;
29940;SDS011;16801;53.562;10.038;2023-01-28T02:29:08;3.37;;;0.97;;
29940;SDS011;16801;53.562;10.038;2023-01-28T02:32:35;0.67;;;0.67;;
29940;SDS011;16801;53.562;10.038;2023-01-28T02:36:02;0.90;;;0.90;;
29940;SDS011;16801;53.562;10.038;2023-01-28T02:39:32;0.80;;;0.80;;
29940;SDS011;16801;53.562;10.038;2023-01-28T02:42:55;1.13;;;0.97;;
29940;SDS011;16801;53.562;10.038;2023-01-28T02:46:21;0.90;;;0.90;;
29940;SDS011;16801;53.562;10.038;2023-01-28T02:50:12;0.70;;;0.70;;
29940;SDS011;16801;53.562;10.038;2023-01-28T02:53:37;0.70;;;0.70;;
29940;SDS011;16801;53.562;10.038;2023-01-28T02:57:06;1.10;;;1.00;;
29940;SDS011;16801;53.562;10.038;2023-01-28T03:00:37;0.77;;;0.77;;
29940;SDS011;16801;53.562;10.038;2023-01-28T03:04:07;0.90;;;0.70;;
29940;SDS011;16801;53.562;10.038;2023-01-28T03:07:35;0.80;;;0.80;;
29940;SDS011;16801;53.562;10.038;2023-01-28T03:10:57;1.20;;;1.00;;
29940;SDS011;16801;53.562;10.038;2023-01-28T03:14:36;0.80;;;0.80;;
29940;SDS011;16801;53.562;10.038;2023-01-28T03:18:17;1.00;;;1.00;;
29940;SDS011;16801;53.562;10.038;2023-01-28T03:22:02;1.30;;;1.20;;
29940;SDS011;16801;53.562;10.038;2023-01-28T03:25:43;0.70;;;0.70;;
29940;SDS011;16801;53.562;10.038;2023-01-28T03:29:24;0.80;;;0.80;;
29940;SDS011;16801;53.562;10.038;2023-01-28T03:33:08;0.93;;;0.90;;
29940;SDS011;16801;53.562;10.038;2023-01-28T03:36:48;0.90;;;0.90;;
29940;SDS011;16801;53.562;10.038;2023-01-28T03:40:35;0.60;;;0.60;;
29940;SDS011;16801;53.562;10.038;2023-01-28T03:44:07;1.53;;;1.53;;
29940;SDS011;16801;53.562;10.038;2023-01-28T03:47:46;1.10;;;1.10;;
29940;SDS011;16801;53.562;10.038;2023-01-28T03:51:08;1.53;;;0.93;;
29940;SDS011;16801;53.562;10.038;2023-01-28T03:54:29;0.83;;;0.83;;
29940;SDS011;16801;53.562;10.038;2023-01-28T03:57:52;0.90;;;0.90;;
29940;SDS011;16801;53.562;10.038;2023-01-28T04:01:13;1.50;;;0.83;;
29940;SDS011;16801;53.562;10.038;2023-01-28T04:04:35;1.40;;;1.10;;
29940;SDS011;16801;53.562;10.038;2023-01-28T04:07:57;1.37;;;0.87;;
29940;SDS011;16801;53.562;10.038;2023-01-28T04:11:47;1.00;;;1.00;;
29940;SDS011;16801;53.562;10.038;2023-01-28T04:15:17;0.83;;;0.83;;
29940;SDS011;16801;53.562;10.038;2023-01-28T04:18:40;0.90;;;0.90;;
29940;SDS011;16801;53.562;10.038;2023-01-28T04:22:02;0.87;;;0.87;;
29940;SDS011;16801;53.562;10.038;2023-01-28T04:25:30;3.37;;;1.33;;
29940;SDS011;16801;53.562;10.038;2023-01-28T04:28:51;3.83;;;1.90;;
29940;SDS011;16801;53.562;10.038;2023-01-28T04:32:14;0.83;;;0.83;;
29940;SDS011;16801;53.562;10.038;2023-01-28T04:35:53;1.00;;;1.00;;
29940;SDS011;16801;53.562;10.038;2023-01-28T04:39:46;1.13;;;1.13;;
29940;SDS011;16801;53.562;10.038;2023-01-28T04:43:29;1.47;;;1.20;;
29940;SDS011;16801;53.562;10.038;2023-01-28T04:47:09;1.93;;;1.37;;
29940;SDS011;16801;53.562;10.038;2023-01-28T04:50:56;1.60;;;1.53;;
29940;SDS011;16801;53.562;10.038;2023-01-28T04:54:46;4.53;;;1.87;;
29940;SDS011;16801;53.562;10.038;2023-01-28T04:58:07;1.60;;;1.50;;
29940;SDS011;16801;53.562;10.038;2023-01-28T05:01:28;1.60;;;1.50;;
29940;SDS011;16801;53.562;10.038;2023-01-28T05:04:50;1.33;;;1.23;;
29940;SDS011;16801;53.562;10.038;2023-01-28T05:08:41;1.23;;;1.23;;
29940;SDS011;16801;53.562;10.038;2023-01-28T05:12:05;1.53;;;1.43;;
29940;SDS011;16801;53.562;10.038;2023-01-28T05:15:29;1.63;;;1.53;;
29940;SDS011;16801;53.562;10.038;2023-01-28T05:18:51;3.87;;;1.40;;
29940;SDS011;16801;53.562;10.038;2023-01-28T05:22:13;3.10;;;1.73;;
29940;SDS011;16801;53.562;10.038;2023-01-28T05:25:38;2.37;;;1.60;;
29940;SDS011;16801;53.562;10.038;2023-01-28T05:28:59;1.40;;;1.30;;
29940;SDS011;16801;53.562;10.038;2023-01-28T05:32:20;1.13;;;1.13;;
29940;SDS011;16801;53.562;10.038;2023-01-28T05:35:41;1.70;;;1.37;;
29940;SDS011;16801;53.562;10.038;2023-01-28T05:39:03;1.57;;;1.43;;
29940;SDS011;16801;53.562;10.038;2023-01-28T05:42:26;1.27;;;1.17;;
29940;SDS011;16801;53.562;10.038;2023-01-28T05:46:00;1.23;;;1.13;;
29940;SDS011;16801;53.562;10.038;2023-01-28T05:49:44;2.77;;;2.57;;
29940;SDS011;16801;53.562;10.038;2023-01-28T05:53:24;1.70;;;1.60;;
29940;SDS011;16801;53.562;10.038;2023-01-28T05:56:44;1.77;;;1.67;;
29940;SDS011;16801;53.562;10.038;2023-01-28T06:00:07;1.60;;;1.50;;
29940;SDS011;16801;53.562;10.038;2023-01-28T06:03:35;1.17;;;1.17;;
29940;SDS011;16801;53.562;10.038;2023-01-28T06:06:56;4.70;;;3.43;;
29940;SDS011;16801;53.562;10.038;2023-01-28T06:10:18;1.83;;;1.73;;
29940;SDS011;16801;53.562;10.038;2023-01-28T06:13:39;2.03;;;1.93;;
29940;SDS011;16801;53.562;10.038;2023-01-28T06:17:26;2.50;;;2.23;;
29940;SDS011;16801;53.562;10.038;2023-01-28T06:21:06;2.13;;;2.03;;
29940;SDS011;16801;53.562;10.038;2023-01-28T06:24:28;3.07;;;2.50;;
29940;SDS011;16801;53.562;10.038;2023-01-28T06:27:48;1.93;;;1.83;;
29940;SDS011;16801;53.562;10.038;2023-01-28T06:31:09;2.10;;;2.00;;
29940;SDS011;16801;53.562;10.038;2023-01-28T06:34:32;2.17;;;1.97;;
29940;SDS011;16801;53.562;10.038;2023-01-28T06:37:52;1.80;;;1.70;;
29940;SDS011;16801;53.562;10.038;2023-01-28T06:41:13;3.07;;;2.77;;
29940;SDS011;16801;53.562;10.038;2023-01-28T06:44:34;2.17;;;2.07;;
29940;SDS011;16801;53.562;10.038;2023-01-28T06:47:55;6.33;;;2.50;;
29940;SDS011;16801;53.562;10.038;2023-01-28T06:51:17;3.33;;;2.77;;
29940;SDS011;16801;53.562;10.038;2023-01-28T06:54:38;2.97;;;2.53;;
29940;SDS011;16801;53.562;10.038;2023-01-28T06:57:59;4.17;;;2.90;;
29940;SDS011;16801;53.562;10.038;2023-01-28T07:01:20;2.43;;;2.30;;
29940;SDS011;16801;53.562;10.038;2023-01-28T07:04:40;2.77;;;2.57;;
29940;SDS011;16801;53.562;10.038;2023-01-28T07:08:03;2.63;;;2.43;;
29940;SDS011;16801;53.562;10.038;2023-01-28T07:11:24;2.97;;;2.17;;
29940;SDS011;16801;53.562;10.038;2023-01-28T07:14:45;2.47;;;2.20;;
29940;SDS011;16801;53.562;10.038;2023-01-28T07:18:06;2.67;;;2.47;;
29940;SDS011;16801;53.562;10.038;2023-01-28T07:21:27;3.00;;;2.30;;
29940;SDS011;16801;53.562;10.038;2023-01-28T07:24:49;2.27;;;2.17;;
29940;SDS011;16801;53.562;10.038;2023-01-28T07:28:10;2.70;;;2.50;;
29940;SDS011;16801;53.562;10.038;2023-01-28T07:31:31;5.40;;;2.70;;
29940;SDS011;16801;53.562;10.038;2023-01-28T07:34:52;2.70;;;2.53;;
29940;SDS011;16801;53.562;10.038;2023-01-28T07:38:13;3.20;;;2.70;;
29940;SDS011;16801;53.562;10.038;2023-01-28T07:41:36;3.80;;;3.50;;
29940;SDS011;16801;53.562;10.038;2023-01-28T07:45:03;4.53;;;3.00;;
29940;SDS011;16801;53.562;10.038;2023-01-28T07:48:24;5.23;;;3.00;;
29940;SDS011;16801;53.562;10.038;2023-01-28T07:51:45;3.27;;;2.97;;
29940;SDS011;16801;53.562;10.038;2023-01-28T07:55:09;3.23;;;2.93;;
29940;SDS011;16801;53.562;10.038;2023-01-28T07:58:32;4.93;;;3.57;;
29940;SDS011;16801;53.562;10.038;2023-01-28T08:01:53;2.80;;;2.57;;
29940;SDS011;16801;53.562;10.038;2023-01-28T08:05:15;3.60;;;3.10;;
29940;SDS011;16801;53.562;10.038;2023-01-28T08:08:37;3.13;;;2.93;;
29940;SDS011;16801;53.562;10.038;2023-01-28T08:11:58;6.17;;;3.13;;
29940;SDS011;16801;53.562;10.038;2023-01-28T08:15:20;5.40;;;4.90;;
29940;SDS011;16801;53.562;10.038;2023-01-28T08:18:43;4.03;;;2.93;;
29940;SDS011;16801;53.562;10.038;2023-01-28T08:22:04;3.63;;;3.10;;
29940;SDS011;16801;53.562;10.038;2023-01-28T08:25:24;3.30;;;2.83;;
29940;SDS011;16801;53.562;10.038;2023-01-28T08:28:45;2.97;;;2.77;;
29940;SDS011;16801;53.562;10.038;2023-01-28T08:32:07;8.73;;;3.77;;
29940;SDS011;16801;53.562;10.038;2023-01-28T08:35:28;3.40;;;3.10;;
29940;SDS011;16801;53.562;10.038;2023-01-28T08:38:50;3.47;;;3.17;;
29940;SDS011;16801;53.562;10.038;2023-01-28T08:42:12;5.10;;;3.23;;
29940;SDS011;16801;53.562;10.038;2023-01-28T08:45:33;2.93;;;2.73;;
29940;SDS011;16801;53.562;10.038;2023-01-28T08:48:56;3.80;;;3.50;;
29940;SDS011;16801;53.562;10.038;2023-01-28T08:52:17;3.13;;;2.87;;
29940;SDS011;16801;53.562;10.038;2023-01-28T08:55:38;3.83;;;3.03;;
29940;SDS011;16801;53.562;10.038;2023-01-28T08:59:02;3.43;;;3.13;;
29940;SDS011;16801;53.562;10.038;2023-01-28T09:02:23;3.10;;;2.90;;
29940;SDS011;16801;53.562;10.038;2023-01-28T09:05:45;3.20;;;3.00;;
29940;SDS011;16801;53.562;10.038;2023-01-28T09:09:07;16.40;;;4.33;;
29940;SDS011;16801;53.562;10.038;2023-01-28T09:12:28;4.50;;;4.10;;
29940;SDS011;16801;53.562;10.038;2023-01-28T09:15:49;2.30;;;2.20;;
29940;SDS011;16801;53.562;10.038;2023-01-28T09:19:10;3.53;;;3.23;;
29940;SDS011;16801;53.562;10.038;2023-01-28T09:22:33;4.30;;;2.53;;
29940;SDS011;16801;53.562;10.038;2023-01-28T09:25:58;3.53;;;2.93;;
29940;SDS011;16801;53.562;10.038;2023-01-28T09:29:19;2.60;;;2.40;;
29940;SDS011;16801;53.562;10.038;2023-01-28T09:32:40;3.80;;;2.85;;
29940;SDS011;16801;53.562;10.038;2023-01-28T09:36:03;5.32;;;2.47;;
29940;SDS011;16801;53.562;10.038;2023-01-28T09:39:26;3.28;;;2.38;;
29940;SDS011;16801;53.562;10.038;2023-01-28T09:42:54;3.35;;;2.80;;
29940;SDS011;16801;53.562;10.038;2023-01-28T09:46:22;3.60;;;3.30;;
29940;SDS011;16801;53.562;10.038;2023-01-28T09:49:50;4.45;;;3.70;;
29940;SDS011;16801;53.562;10.038;2023-01-28T09:53:15;2.50;;;2.30;;
29940;SDS011;16801;53.562;10.038;2023-01-28T09:56:40;2.50;;;1.70;;
29940;SDS011;16801;53.562;10.038;2023-01-28T10:00:10;2.38;;;2.10;;
29940;SDS011;16801;53.562;10.038;2023-01-28T10:03:40;1.73;;;1.63;;
29940;SDS011;16801;53.562;10.038;2023-01-28T10:07:14;3.00;;;2.58;;
29940;SDS011;16801;53.562;10.038;2023-01-28T10:10:45;2.58;;;2.38;;
29940;SDS011;16801;53.562;10.038;2023-01-28T10:14:12;1.45;;;1.45;;
29940;SDS011;16801;53.562;10.038;2023-01-28T10:17:43;2.38;;;2.22;;
29940;SDS011;16801;53.562;10.038;2023-01-28T10:21:09;4.37;;;3.07;;
29940;SDS011;16801;53.562;10.038;2023-01-28T10:24:38;2.00;;;1.73;;
29940;SDS011;16801;53.562;10.038;2023-01-28T10:28:04;2.75;;;1.98;;
29940;SDS011;16801;53.562;10.038;2023-01-28T10:31:40;2.00;;;1.90;;
29940;SDS011;16801;53.562;10.038;2023-01-28T10:35:05;2.50;;;2.33;;
29940;SDS011;16801;53.562;10.038;2023-01-28T10:38:26;2.93;;;2.00;;
29940;SDS011;16801;53.562;10.038;2023-01-28T10:41:48;6.10;;;2.80;;
29940;SDS011;16801;53.562;10.038;2023-01-28T10:45:14;2.23;;;2.00;;
29940;SDS011;16801;53.562;10.038;2023-01-28T10:48:40;2.07;;;1.97;;
29940;SDS011;16801;53.562;10.038;2023-01-28T10:52:09;4.63;;;2.43;;
29940;SDS011;16801;53.562;10.038;2023-01-28T10:55:33;12.13;;;3.77;;
29940;SDS011;16801;53.562;10.038;2023-01-28T10:59:17;2.77;;;2.50;;
29940;SDS011;16801;53.562;10.038;2023-01-28T11:02:40;6.27;;;3.17;;
29940;SDS011;16801;53.562;10.038;2023-01-28T11:06:02;3.77;;;3.37;;
29940;SDS011;16801;53.562;10.038;2023-01-28T11:09:24;4.73;;;3.80;;
29940;SDS011;16801;53.562;10.038;2023-01-28T11:12:53;5.10;;;3.13;;
29940;SDS011;16801;53.562;10.038;2023-01-28T11:16:15;2.77;;;2.57;;
29940;SDS011;16801;53.562;10.038;2023-01-28T11:19:37;3.73;;;3.43;;
29940;SDS011;16801;53.562;10.038;2023-01-28T11:23:00;3.67;;;2.60;;
29940;SDS011;16801;53.562;10.038;2023-01-28T11:26:21;3.27;;;2.90;;
29940;SDS011;16801;53.562;10.038;2023-01-28T11:29:45;2.53;;;2.33;;
29940;SDS011;16801;53.562;10.038;2023-01-28T11:33:07;1.90;;;1.80;;
29940;SDS011;16801;53.562;10.038;2023-01-28T11:36:37;5.37;;;3.33;;
29940;SDS011;16801;53.562;10.038;2023-01-28T11:40:13;3.13;;;2.47;;
29940;SDS011;16801;53.562;10.038;2023-01-28T11:43:38;2.47;;;2.28;;
29940;SDS011;16801;53.562;10.038;2023-01-28T11:47:09;2.63;;;2.42;;
29940;SDS011;16801;53.562;10.038;2023-01-28T11:50:42;3.60;;;3.17;;
29940;SDS011;16801;53.562;10.038;2023-01-28T11:54:13;3.97;;;3.30;;
29940;SDS011;16801;53.562;10.038;2023-01-28T11:57:46;4.53;;;3.50;;
29940;SDS011;16801;53.562;10.038;2023-01-28T12:01:15;8.57;;;3.90;;
29940;SDS011;16801;53.562;10.038;2023-01-28T12:04:51;3.37;;;3.17;;
29940;SDS011;16801;53.562;10.038;2023-01-28T12:08:26;4.50;;;3.23;;
29940;SDS011;16801;53.562;10.038;2023-01-28T12:11:58;3.50;;;3.20;;
29940;SDS011;16801;53.562;10.038;2023-01-28T12:15:41;3.30;;;3.10;;
29940;SDS011;16801;53.562;10.038;2023-01-28T12:19:18;4.33;;;3.90;;
29940;SDS011;16801;53.562;10.038;2023-01-28T12:22:58;3.93;;;3.57;;
29940;SDS011;16801;53.562;10.038;2023-01-28T12:26:27;3.93;;;3.63;;
29940;SDS011;16801;53.562;10.038;2023-01-28T12:30:01;5.77;;;4.20;;
29940;SDS011;16801;53.562;10.038;2023-01-28T12:33:48;4.67;;;3.23;;
29940;SDS011;16801;53.562;10.038;2023-01-28T12:37:24;6.77;;;3.73;;
29940;SDS011;16801;53.562;10.038;2023-01-28T12:41:00;3.27;;;2.93;;
29940;SDS011;16801;53.562;10.038;2023-01-28T12:44:27;4.60;;;4.20;;
29940;SDS011;16801;53.562;10.038;2023-01-28T12:47:52;5.50;;;3.43;;
29940;SDS011;16801;53.562;10.038;2023-01-28T12:51:19;4.23;;;3.83;;
29940;SDS011;16801;53.562;10.038;2023-01-28T12:54:44;3.67;;;3.17;;
29940;SDS011;16801;53.562;10.038;2023-01-28T12:58:15;3.87;;;3.43;;
29940;SDS011;16801;53.562;10.038;2023-01-28T13:01:43;6.27;;;3.87;;
29940;SDS011;16801;53.562;10.038;2023-01-28T13:05:10;4.10;;;3.63;;
29940;SDS011;16801;53.562;10.038;2023-01-28T13:08:36;6.10;;;5.17;;
29940;SDS011;16801;53.562;10.038;2023-01-28T13:11:57;6.13;;;4.70;;
29940;SDS011;16801;53.562;10.038;2023-01-28T13:15:21;7.23;;;5.53;;
29940;SDS011;16801;53.562;10.038;2023-01-28T13:18:44;8.60;;;4.37;;
29940;SDS011;16801;53.562;10.038;2023-01-28T13:22:09;4.57;;;4.17;;
29940;SDS011;16801;53.562;10.038;2023-01-28T13:25:48;4.50;;;4.10;;
29940;SDS011;16801;53.562;10.038;2023-01-28T13:32:54;6.30;;;4.03;;
29940;SDS011;16801;53.562;10.038;2023-01-28T13:36:21;4.73;;;4.20;;
29940;SDS011;16801;53.562;10.038;2023-01-28T13:39:45;6.33;;;4.63;;
29940;SDS011;16801;53.562;10.038;2023-01-28T13:43:26;5.23;;;4.70;;
29940;SDS011;16801;53.562;10.038;2023-01-28T13:46:57;5.40;;;4.80;;
29940;SDS011;16801;53.562;10.038;2023-01-28T13:50:20;6.03;;;5.43;;
29940;SDS011;16801;53.562;10.038;2023-01-28T13:53:44;5.27;;;4.87;;
29940;SDS011;16801;53.562;10.038;2023-01-28T13:57:16;5.93;;;4.50;;
29940;SDS011;16801;53.562;10.038;2023-01-28T14:01:05;6.47;;;5.50;;
29940;SDS011;16801;53.562;10.038;2023-01-28T14:04:44;8.40;;;4.90;;
29940;SDS011;16801;53.562;10.038;2023-01-28T14:08:22;7.17;;;5.87;;
29940;SDS011;16801;53.562;10.038;2023-01-28T14:12:11;8.40;;;5.93;;
29940;SDS011;16801;53.562;10.038;2023-01-28T14:15:48;6.33;;;5.67;;
29940;SDS011;16801;53.562;10.038;2023-01-28T14:19:18;6.97;;;5.80;;
29940;SDS011;16801;53.562;10.038;2023-01-28T14:22:45;7.80;;;4.90;;
29940;SDS011;16801;53.562;10.038;2023-01-28T14:26:15;5.27;;;4.77;;
29940;SDS011;16801;53.562;10.038;2023-01-28T14:29:54;4.60;;;4.20;;
29940;SDS011;16801;53.562;10.038;2023-01-28T14:33:23;6.87;;;6.23;;
29940;SDS011;16801;53.562;10.038;2023-01-28T14:36:46;6.97;;;6.17;;
29940;SDS011;16801;53.562;10.038;2023-01-28T14:40:10;4.77;;;3.93;;
29940;SDS011;16801;53.562;10.038;2023-01-28T14:43:34;5.40;;;4.90;;
29940;SDS011;16801;53.562;10.038;2023-01-28T14:47:06;7.50;;;5.30;;
29940;SDS011;16801;53.562;10.038;2023-01-28T14:54:34;6.57;;;4.60;;
29940;SDS011;16801;53.562;10.038;2023-01-28T14:58:04;7.57;;;5.30;;
29940;SDS011;16801;53.562;10.038;2023-01-28T15:01:29;8.43;;;5.80;;
29940;SDS011;16801;53.562;10.038;2023-01-28T15:04:51;6.73;;;6.00;;
29940;SDS011;16801;53.562;10.038;2023-01-28T15:08:18;8.93;;;5.83;;
29940;SDS011;16801;53.562;10.038;2023-01-28T15:11:41;9.57;;;6.13;;
29940;SDS011;16801;53.562;10.038;2023-01-28T15:15:08;6.20;;;5.10;;
29940;SDS011;16801;53.562;10.038;2023-01-28T15:18:31;7.30;;;5.03;;
29940;SDS011;16801;53.562;10.038;2023-01-28T15:21:55;4.67;;;4.10;;
29940;SDS011;16801;53.562;10.038;2023-01-28T15:25:18;9.37;;;6.53;;
29940;SDS011;16801;53.562;10.038;2023-01-28T15:28:42;6.17;;;5.57;;
29940;SDS011;16801;53.562;10.038;2023-01-28T15:32:04;6.17;;;5.03;;
29940;SDS011;16801;53.562;10.038;2023-01-28T15:35:25;9.73;;;6.20;;
29940;SDS011;16801;53.562;10.038;2023-01-28T15:38:46;8.33;;;5.43;;
29940;SDS011;16801;53.562;10.038;2023-01-28T15:42:15;7.07;;;6.37;;
29940;SDS011;16801;53.562;10.038;2023-01-28T15:45:44;6.97;;;6.03;;
29940;SDS011;16801;53.562;10.038;2023-01-28T15:49:13;7.67;;;6.03;;
29940;SDS011;16801;53.562;10.038;2023-01-28T15:52:36;8.20;;;5.17;;
29940;SDS011;16801;53.562;10.038;2023-01-28T15:56:06;5.47;;;4.50;;
29940;SDS011;16801;53.562;10.038;2023-01-28T15:59:28;11.27;;;5.33;;
29940;SDS011;16801;53.562;10.038;2023-01-28T16:02:52;7.20;;;5.40;;
29940;SDS011;16801;53.562;10.038;2023-01-28T16:06:15;6.63;;;4.63;;
29940;SDS011;16801;53.562;10.038;2023-01-28T16:09:40;8.27;;;5.93;;
29940;SDS011;16801;53.562;10.038;2023-01-28T16:13:03;6.10;;;4.87;;
29940;SDS011;16801;53.562;10.038;2023-01-28T16:16:26;9.47;;;5.93;;
29940;SDS011;16801;53.562;10.038;2023-01-28T16:19:56;4.47;;;3.97;;
29940;SDS011;16801;53.562;10.038;2023-01-28T16:23:20;5.90;;;5.17;;
29940;SDS011;16801;53.562;10.038;2023-01-28T16:26:54;9.07;;;5.23;;
29940;SDS011;16801;53.562;10.038;2023-01-28T16:30:17;6.53;;;4.00;;
29940;SDS011;16801;53.562;10.038;2023-01-28T16:33:38;4.63;;;4.23;;
29940;SDS011;16801;53.562;10.038;2023-01-28T16:37:01;6.27;;;5.67;;
29940;SDS011;16801;53.562;10.038;2023-01-28T16:40:23;9.23;;;5.87;;
29940;SDS011;16801;53.562;10.038;2023-01-28T16:43:44;8.27;;;4.67;;
29940;SDS011;16801;53.562;10.038;2023-01-28T16:47:05;9.60;;;5.17;;
29940;SDS011;16801;53.562;10.038;2023-01-28T16:50:26;6.50;;;5.63;;
29940;SDS011;16801;53.562;10.038;2023-01-28T16:53:48;16.10;;;6.00;;
29940;SDS011;16801;53.562;10.038;2023-01-28T16:57:10;8.17;;;6.47;;
29940;SDS011;16801;53.562;10.038;2023-01-28T17:00:34;8.10;;;4.93;;
29940;SDS011;16801;53.562;10.038;2023-01-28T17:03:55;7.07;;;5.37;;
29940;SDS011;16801;53.562;10.038;2023-01-28T17:07:16;14.80;;;5.40;;
29940;SDS011;16801;53.562;10.038;2023-01-28T17:10:38;9.90;;;5.80;;
29940;SDS011;16801;53.562;10.038;2023-01-28T17:14:00;9.57;;;5.77;;
29940;SDS011;16801;53.562;10.038;2023-01-28T17:17:21;7.60;;;5.60;;
29940;SDS011;16801;53.562;10.038;2023-01-28T17:20:42;14.90;;;7.47;;
29940;SDS011;16801;53.562;10.038;2023-01-28T17:24:03;7.30;;;5.30;;
29940;SDS011;16801;53.562;10.038;2023-01-28T17:27:26;7.67;;;5.60;;
29940;SDS011;16801;53.562;10.038;2023-01-28T17:30:47;6.77;;;5.77;;
29940;SDS011;16801;53.562;10.038;2023-01-28T17:34:08;7.13;;;4.97;;
29940;SDS011;16801;53.562;10.038;2023-01-28T17:37:30;7.23;;;6.07;;
29940;SDS011;16801;53.562;10.038;2023-01-28T17:40:51;9.37;;;8.27;;
29940;SDS011;16801;53.562;10.038;2023-01-28T17:44:13;12.03;;;5.77;;
29940;SDS011;16801;53.562;10.038;2023-01-28T17:47:34;11.87;;;7.40;;
29940;SDS011;16801;53.562;10.038;2023-01-28T17:50:55;11.00;;;7.17;;
29940;SDS011;16801;53.562;10.038;2023-01-28T17:54:18;9.43;;;5.53;;
29940;SDS011;16801;53.562;10.038;2023-01-28T17:57:39;7.50;;;5.93;;
29940;SDS011;16801;53.562;10.038;2023-01-28T18:01:08;8.93;;;6.03;;
29940;SDS011;16801;53.562;10.038;2023-01-28T18:04:28;9.60;;;6.47;;
29940;SDS011;16801;53.562;10.038;2023-01-28T18:07:51;11.57;;;8.60;;
29940;SDS011;16801;53.562;10.038;2023-01-28T18:11:13;14.37;;;9.67;;
29940;SDS011;16801;53.562;10.038;2023-01-28T18:14:37;22.10;;;18.30;;
29940;SDS011;16801;53.562;10.038;2023-01-28T18:17:59;40.70;;;32.47;;
29940;SDS011;16801;53.562;10.038;2023-01-28T18:21:21;21.53;;;9.57;;
29940;SDS011;16801;53.562;10.038;2023-01-28T18:24:50;11.13;;;7.40;;
29940;SDS011;16801;53.562;10.038;2023-01-28T18:28:11;10.40;;;6.63;;
29940;SDS011;16801;53.562;10.038;2023-01-28T18:31:32;13.40;;;8.47;;
29940;SDS011;16801;53.562;10.038;2023-01-28T18:34:54;12.57;;;7.57;;
29940;SDS011;16801;53.562;10.038;2023-01-28T18:38:17;8.47;;;6.40;;
29940;SDS011;16801;53.562;10.038;2023-01-28T18:41:38;9.60;;;6.73;;
29940;SDS011;16801;53.562;10.038;2023-01-28T18:44:59;7.87;;;6.73;;
29940;SDS011;16801;53.562;10.038;2023-01-28T18:48:21;11.20;;;6.80;;
29940;SDS011;16801;53.562;10.038;2023-01-28T18:51:43;7.60;;;5.70;;
29940;SDS011;16801;53.562;10.038;2023-01-28T18:55:04;13.73;;;8.20;;
29940;SDS011;16801;53.562;10.038;2023-01-28T18:58:26;10.27;;;7.20;;
29940;SDS011;16801;53.562;10.038;2023-01-28T19:01:46;10.47;;;6.93;;
29940;SDS011;16801;53.562;10.038;2023-01-28T19:05:07;7.57;;;5.93;;
29940;SDS011;16801;53.562;10.038;2023-01-28T19:08:30;9.97;;;7.07;;
29940;SDS011;16801;53.562;10.038;2023-01-28T19:11:51;9.33;;;7.43;;
29940;SDS011;16801;53.562;10.038;2023-01-28T19:15:12;11.37;;;7.90;;
29940;SDS011;16801;53.562;10.038;2023-01-28T19:18:33;8.23;;;6.73;;
29940;SDS011;16801;53.562;10.038;2023-01-28T19:21:54;11.43;;;7.97;;
29940;SDS011;16801;53.562;10.038;2023-01-28T19:25:17;14.00;;;8.80;;
29940;SDS011;16801;53.562;10.038;2023-01-28T19:28:38;13.87;;;7.77;;
29940;SDS011;16801;53.562;10.038;2023-01-28T19:31:59;12.83;;;7.03;;
29940;SDS011;16801;53.562;10.038;2023-01-28T19:35:20;8.57;;;6.07;;
29940;SDS011;16801;53.562;10.038;2023-01-28T19:38:42;9.67;;;7.03;;
29940;SDS011;16801;53.562;10.038;2023-01-28T19:42:05;14.20;;;6.37;;
29940;SDS011;16801;53.562;10.038;2023-01-28T19:45:26;9.07;;;6.97;;
29940;SDS011;16801;53.562;10.038;2023-01-28T19:48:47;10.13;;;6.60;;
29940;SDS011;16801;53.562;10.038;2023-01-28T19:52:08;13.07;;;8.17;;
29940;SDS011;16801;53.562;10.038;2023-01-28T19:55:29;11.03;;;7.57;;
29940;SDS011;16801;53.562;10.038;2023-01-28T19:58:51;9.53;;;6.53;;
29940;SDS011;16801;53.562;10.038;2023-01-28T20:02:13;10.77;;;6.77;;
29940;SDS011;16801;53.562;10.038;2023-01-28T20:05:34;11.13;;;7.40;;
29940;SDS011;16801;53.562;10.038;2023-01-28T20:08:56;9.67;;;7.07;;
29940;SDS011;16801;53.562;10.038;2023-01-28T20:12:18;9.47;;;6.07;;
29940;SDS011;16801;53.562;10.038;2023-01-28T20:15:41;7.13;;;6.37;;
29940;SDS011;16801;53.562;10.038;2023-01-28T20:19:02;9.20;;;7.43;;
29940;SDS011;16801;53.562;10.038;2023-01-28T20:22:24;7.73;;;5.97;;
29940;SDS011;16801;53.562;10.038;2023-01-28T20:25:47;8.20;;;7.07;;
29940;SDS011;16801;53.562;10.038;2023-01-28T20:29:10;13.77;;;8.50;;